Time;durP1;ratioP1;P1;durP2;ratioP2;P2;SDS_P1;SDS_P2;PMS_P1;PMS_P2;Temp;Humidity;BMP_temperature;BMP_pressure;BME280_temperature;BME280_humidity;BME280_pressure;Samples;Min_cycle;Max_cycle;Signal;HPM_P1;HPM_P2
2023/02/25 00:02:09;;;;;;;12.20;3.27;;;6.00;99.90;;;;;;5072585;28;20155;-73
2023/02/25 00:04:36;;;;;;;13.37;3.17;;;6.00;99.90;;;;;;5072337;28;20213;-72
2023/02/25 00:07:02;;;;;;;7.83;1.83;;;5.80;99.90;;;;;;5071412;28;20541;-73
2023/02/25 00:09:29;;;;;;;13.17;2.73;;;5.80;99.90;;;;;;5072587;28;20244;-73
2023/02/25 00:11:55;;;;;;;10.63;2.70;;;5.70;99.90;;;;;;5072309;28;20197;-73
2023/02/25 00:14:21;;;;;;;11.20;2.50;;;5.80;99.90;;;;;;5072684;28;20659;-73
2023/02/25 00:16:49;;;;;;;10.17;2.13;;;5.80;99.90;;;;;;5072512;28;20238;-73
2023/02/25 00:19:15;;;;;;;7.97;1.70;;;5.70;99.90;;;;;;5072632;28;20164;-73
2023/02/25 00:21:41;;;;;;;11.10;2.30;;;5.70;99.90;;;;;;5070292;28;20161;-73
2023/02/25 00:24:07;;;;;;;12.67;2.03;;;5.80;99.90;;;;;;5071383;28;20219;-73
2023/02/25 00:26:32;;;;;;;10.80;2.17;;;5.70;99.90;;;;;;5071997;28;20166;-74
2023/02/25 00:28:58;;;;;;;10.83;1.53;;;5.80;99.90;;;;;;5071241;28;20257;-73
2023/02/25 00:31:24;;;;;;;8.50;1.63;;;5.80;99.90;;;;;;5072221;28;20616;-73
2023/02/25 00:33:51;;;;;;;5.60;1.20;;;5.80;99.90;;;;;;5072463;28;20271;-73
2023/02/25 00:36:21;;;;;;;8.10;1.60;;;5.70;99.90;;;;;;5072622;28;20571;-73
2023/02/25 00:38:51;;;;;;;9.27;1.97;;;5.70;99.90;;;;;;5071116;28;20168;-72
2023/02/25 00:41:19;;;;;;;6.40;1.67;;;5.50;99.90;;;;;;5072278;28;20568;-73
2023/02/25 00:43:57;;;;;;;6.63;1.60;;;5.50;99.90;;;;;;5072509;28;20166;-73
2023/02/25 00:46:23;;;;;;;8.20;1.80;;;5.50;99.90;;;;;;5071676;28;20164;-73
2023/02/25 00:48:50;;;;;;;6.83;1.70;;;5.50;99.90;;;;;;5072485;28;20157;-73
2023/02/25 00:51:20;;;;;;;11.97;2.17;;;5.50;99.90;;;;;;5072149;28;20495;-73
2023/02/25 00:53:46;;;;;;;8.97;1.47;;;5.60;99.90;;;;;;5070966;28;20260;-73
2023/02/25 00:56:14;;;;;;;9.97;1.97;;;5.50;99.90;;;;;;5071836;28;20167;-72
2023/02/25 00:58:41;;;;;;;5.73;1.30;;;5.60;99.90;;;;;;5072491;28;20169;-77
2023/02/25 01:01:18;;;;;;;9.93;2.30;;;5.60;99.90;;;;;;5075636;28;20158;-77
2023/02/25 01:03:51;;;;;;;6.03;1.10;;;5.70;99.90;;;;;;5076224;28;20624;-77
2023/02/25 01:06:19;;;;;;;10.13;1.23;;;5.70;99.90;;;;;;5074610;28;20165;-78
2023/02/25 01:08:44;;;;;;;7.43;1.83;;;5.60;99.90;;;;;;5075905;28;20152;-76
2023/02/25 01:11:19;;;;;;;5.17;1.13;;;5.60;99.90;;;;;;5076338;28;20159;-77
2023/02/25 01:13:46;;;;;;;4.77;1.30;;;5.60;99.90;;;;;;5075571;28;20197;-77
2023/02/25 01:16:18;;;;;;;6.60;1.27;;;5.70;99.90;;;;;;5074768;28;20164;-76
2023/02/25 01:18:45;;;;;;;4.40;1.20;;;5.60;99.90;;;;;;5075890;28;20202;-77
2023/02/25 01:21:16;;;;;;;6.73;1.33;;;5.60;99.90;;;;;;5074618;28;20215;-76
2023/02/25 01:23:47;;;;;;;11.20;1.67;;;5.70;99.90;;;;;;5076018;28;20219;-77
2023/02/25 01:26:14;;;;;;;6.13;1.37;;;5.80;99.90;;;;;;5075111;28;20175;-78
2023/02/25 01:28:39;;;;;;;10.40;1.43;;;5.90;99.90;;;;;;5075345;28;20560;-77
2023/02/25 01:31:07;;;;;;;5.73;1.37;;;5.90;99.90;;;;;;5076162;28;20168;-77
2023/02/25 01:33:37;;;;;;;5.37;1.00;;;6.00;99.90;;;;;;5075642;28;20652;-76
2023/02/25 01:36:06;;;;;;;11.17;1.87;;;6.00;99.90;;;;;;5075704;28;20168;-76
2023/02/25 01:38:33;;;;;;;10.13;1.73;;;6.10;99.90;;;;;;5074013;28;20164;-77
2023/02/25 01:41:00;;;;;;;9.03;1.47;;;6.10;99.90;;;;;;5074929;28;20173;-77
2023/02/25 01:43:27;;;;;;;7.60;1.20;;;6.00;99.90;;;;;;5075837;28;20175;-78
2023/02/25 01:45:54;;;;;;;8.43;1.50;;;6.00;99.90;;;;;;5075086;28;20170;-77
2023/02/25 01:48:31;;;;;;;11.47;1.53;;;5.90;99.90;;;;;;5075392;28;20184;-76
2023/02/25 01:51:04;;;;;;;4.60;1.03;;;5.90;99.90;;;;;;5075288;28;20286;-77
2023/02/25 01:53:36;;;;;;;8.57;1.17;;;5.90;99.90;;;;;;5075095;28;20201;-77
2023/02/25 01:56:02;;;;;;;11.57;1.53;;;5.80;99.90;;;;;;5075082;28;20210;-75
2023/02/25 01:58:29;;;;;;;7.57;1.17;;;5.70;99.90;;;;;;5073681;28;20169;-76
2023/02/25 02:00:54;;;;;;;7.20;1.10;;;5.70;99.90;;;;;;5075058;28;20186;-76
2023/02/25 02:03:25;;;;;;;6.77;1.00;;;5.80;99.90;;;;;;5074234;28;20169;-76
2023/02/25 02:06:20;;;;;;;10.07;1.40;;;5.80;99.90;;;;;;5074240;28;20172;-77
2023/02/25 02:08:47;;;;;;;5.47;0.97;;;5.80;99.90;;;;;;5073124;28;20177;-77
2023/02/25 02:11:12;;;;;;;8.60;1.50;;;5.80;99.90;;;;;;5074686;28;20259;-77
2023/02/25 02:13:43;;;;;;;5.70;1.40;;;5.70;99.90;;;;;;5072928;28;20317;-78
2023/02/25 02:16:25;;;;;;;9.33;1.10;;;5.60;99.90;;;;;;5074637;28;20160;-76
2023/02/25 02:18:57;;;;;;;5.50;1.27;;;5.50;99.90;;;;;;5074508;28;20583;-76
2023/02/25 02:22:02;;;;;;;6.77;1.23;;;5.50;99.90;;;;;;5074036;28;20181;-75
2023/02/25 02:24:28;;;;;;;5.97;1.57;;;5.50;99.90;;;;;;5073102;28;20167;-77
2023/02/25 02:27:03;;;;;;;8.50;1.30;;;5.50;99.90;;;;;;5074229;28;20164;-77
2023/02/25 02:29:56;;;;;;;13.37;6.60;;;5.40;99.90;;;;;;5074569;28;20170;-77
2023/02/25 02:32:45;;;;;;;63.43;31.03;;;5.60;99.90;;;;;;5072818;28;20246;-77
2023/02/25 02:35:22;;;;;;;43.47;23.13;;;5.70;99.90;;;;;;5074476;28;20674;-77
2023/02/25 02:38:16;;;;;;;21.70;11.17;;;5.90;99.90;;;;;;5074254;28;20702;-77
2023/02/25 02:40:48;;;;;;;29.17;12.03;;;5.80;99.90;;;;;;5072751;28;20663;-77
2023/02/25 02:43:31;;;;;;;23.03;7.93;;;5.90;99.90;;;;;;5072768;28;20251;-76
2023/02/25 02:46:23;;;;;;;17.47;6.07;;;5.80;99.90;;;;;;5074158;28;20170;-78
2023/02/25 02:49:06;;;;;;;13.80;4.07;;;5.90;99.90;;;;;;5073995;28;20159;-77
2023/02/25 02:51:42;;;;;;;11.00;2.53;;;6.00;99.90;;;;;;5072056;28;20182;-76
2023/02/25 02:54:12;;;;;;;13.73;2.80;;;5.90;99.90;;;;;;5072030;28;20274;-75
2023/02/25 02:56:41;;;;;;;10.43;2.43;;;6.00;99.90;;;;;;5073319;28;20158;-76
2023/02/25 02:59:24;;;;;;;8.87;3.37;;;6.10;99.90;;;;;;5073634;28;20170;-77
2023/02/25 03:01:58;;;;;;;7.90;1.87;;;6.00;99.90;;;;;;5072094;28;20197;-77
2023/02/25 03:04:27;;;;;;;9.17;2.20;;;6.00;99.90;;;;;;5073358;28;20548;-77
2023/02/25 03:07:01;;;;;;;11.23;2.40;;;6.00;99.90;;;;;;5073524;28;20676;-76
2023/02/25 03:09:49;;;;;;;8.67;2.03;;;6.00;99.90;;;;;;5072371;28;20172;-78
2023/02/25 03:12:15;;;;;;;10.47;2.20;;;5.90;99.90;;;;;;5072883;28;20304;-77
2023/02/25 03:14:42;;;;;;;10.83;2.20;;;6.00;99.90;;;;;;5073496;28;20270;-76
2023/02/25 03:17:19;;;;;;;10.80;2.67;;;6.00;99.90;;;;;;5072625;28;20167;-77
2023/02/25 03:20:06;;;;;;;11.43;2.07;;;5.90;99.90;;;;;;5073440;28;20175;-77
2023/02/25 03:22:39;;;;;;;7.27;1.77;;;5.90;99.90;;;;;;5073279;28;20171;-77
2023/02/25 03:25:09;;;;;;;12.13;2.20;;;5.80;99.90;;;;;;5073661;28;20156;-77
2023/02/25 03:27:38;;;;;;;7.20;1.60;;;5.80;99.90;;;;;;5073131;28;20172;-77
2023/02/25 03:30:11;;;;;;;12.47;1.90;;;5.80;99.90;;;;;;5071874;28;20692;-76
2023/02/25 03:32:45;;;;;;;10.33;2.23;;;5.60;99.90;;;;;;5071842;28;20184;-76
2023/02/25 03:35:13;;;;;;;13.53;2.17;;;5.80;99.90;;;;;;5072205;28;20578;-78
2023/02/25 03:37:43;;;;;;;14.40;2.07;;;5.80;99.90;;;;;;5073537;28;20184;-77
2023/02/25 03:40:12;;;;;;;8.90;1.70;;;5.80;99.90;;;;;;5073082;28;20239;-77
2023/02/25 03:42:44;;;;;;;13.90;1.90;;;5.90;99.90;;;;;;5071860;28;20688;-78
2023/02/25 03:45:12;;;;;;;10.00;1.57;;;5.80;99.90;;;;;;5072933;28;20232;-77
2023/02/25 03:47:41;;;;;;;6.97;1.83;;;5.80;99.90;;;;;;5073463;28;20673;-77
2023/02/25 03:50:27;;;;;;;9.47;1.67;;;5.80;99.90;;;;;;5072881;28;20187;-76
2023/02/25 03:52:53;;;;;;;11.43;2.00;;;5.70;99.90;;;;;;5073337;28;20188;-76
2023/02/25 03:55:19;;;;;;;4.23;1.20;;;5.70;99.90;;;;;;5070633;28;20185;-77
2023/02/25 03:57:49;;;;;;;8.93;1.87;;;5.70;99.90;;;;;;5073427;28;20167;-77
2023/02/25 04:00:18;;;;;;;11.70;1.50;;;5.70;99.90;;;;;;5073137;28;20168;-77
2023/02/25 04:02:48;;;;;;;14.33;2.00;;;5.70;99.90;;;;;;5073230;28;20216;-77
2023/02/25 04:05:16;;;;;;;5.57;1.50;;;5.70;99.90;;;;;;5073363;28;20322;-77
2023/02/25 04:07:42;;;;;;;8.90;2.13;;;5.70;99.90;;;;;;5072044;28;20160;-77
2023/02/25 04:10:11;;;;;;;9.30;3.10;;;5.60;99.90;;;;;;5072973;28;20157;-76
2023/02/25 04:12:36;;;;;;;9.77;1.80;;;5.70;99.90;;;;;;5072651;28;20293;-77
2023/02/25 04:15:03;;;;;;;10.47;1.80;;;5.80;99.90;;;;;;5071202;28;20615;-76
2023/02/25 04:17:28;;;;;;;8.30;1.77;;;5.80;99.90;;;;;;5072855;28;20167;-76
2023/02/25 04:19:54;;;;;;;13.40;2.57;;;5.70;99.90;;;;;;5073206;28;20638;-76
2023/02/25 04:22:20;;;;;;;12.47;1.77;;;5.80;99.90;;;;;;5071807;28;20194;-76
2023/02/25 04:24:45;;;;;;;12.27;2.83;;;5.70;99.90;;;;;;5072914;28;20508;-77
2023/02/25 04:27:14;;;;;;;12.03;1.83;;;5.80;99.90;;;;;;5072962;28;20223;-77
2023/02/25 04:29:40;;;;;;;9.57;2.30;;;5.80;99.90;;;;;;5072789;28;20169;-77
2023/02/25 04:32:06;;;;;;;7.67;1.70;;;5.80;99.90;;;;;;5072806;28;20201;-76
2023/02/25 04:34:31;;;;;;;8.27;1.80;;;5.90;99.90;;;;;;5074782;28;20188;-72
2023/02/25 04:36:57;;;;;;;7.43;2.17;;;6.00;99.90;;;;;;5076467;28;20594;-72
2023/02/25 04:39:22;;;;;;;14.33;2.20;;;5.90;99.90;;;;;;5076168;28;20186;-73
2023/02/25 04:41:48;;;;;;;12.43;1.70;;;6.10;99.90;;;;;;5076691;28;20591;-73
2023/02/25 04:44:14;;;;;;;6.20;1.63;;;6.00;99.90;;;;;;5075255;28;20236;-71
2023/02/25 04:46:41;;;;;;;13.10;1.93;;;6.00;99.90;;;;;;5076232;28;20158;-72
2023/02/25 04:49:08;;;;;;;7.43;1.97;;;5.80;99.90;;;;;;5076529;28;20166;-72
2023/02/25 04:51:34;;;;;;;13.70;2.03;;;5.80;99.90;;;;;;5075657;28;20216;-72
2023/02/25 04:54:00;;;;;;;9.37;1.83;;;5.90;99.90;;;;;;5076447;28;20191;-72
2023/02/25 04:56:27;;;;;;;16.37;2.80;;;5.90;99.90;;;;;;5075152;28;20531;-71
2023/02/25 04:58:53;;;;;;;9.00;1.70;;;5.80;99.90;;;;;;5076247;28;20252;-72
2023/02/25 05:01:20;;;;;;;10.97;1.80;;;5.90;99.90;;;;;;5074924;28;20175;-73
2023/02/25 05:03:46;;;;;;;12.80;1.80;;;5.90;99.90;;;;;;5076568;28;20225;-72
2023/02/25 05:06:11;;;;;;;7.10;1.70;;;5.80;99.90;;;;;;5076194;28;20436;-72
2023/02/25 05:08:37;;;;;;;9.17;2.00;;;5.80;99.90;;;;;;5073825;28;20165;-72
2023/02/25 05:11:03;;;;;;;13.13;2.63;;;5.90;99.90;;;;;;5075801;28;20160;-72
2023/02/25 05:13:29;;;;;;;11.37;1.43;;;5.90;99.90;;;;;;5075980;28;20220;-72
2023/02/25 05:16:10;;;;;;;12.07;1.80;;;6.00;99.90;;;;;;5075784;28;20516;-72
2023/02/25 05:18:41;;;;;;;9.97;1.70;;;6.00;99.90;;;;;;5074068;28;20159;-73
2023/02/25 05:21:12;;;;;;;5.47;1.70;;;6.10;99.90;;;;;;5075668;28;20156;-72
2023/02/25 05:23:40;;;;;;;9.87;1.90;;;6.00;99.90;;;;;;5074552;28;20169;-72
2023/02/25 05:26:06;;;;;;;9.03;1.70;;;6.10;99.90;;;;;;5073936;28;20636;-71
2023/02/25 05:28:32;;;;;;;10.73;3.10;;;6.00;99.90;;;;;;5075708;28;20176;-71
2023/02/25 05:30:58;;;;;;;12.50;1.97;;;6.10;99.90;;;;;;5075956;28;20535;-73
2023/02/25 05:33:23;;;;;;;12.37;2.20;;;6.10;99.90;;;;;;5075386;28;20527;-73
2023/02/25 05:35:50;;;;;;;6.70;1.50;;;6.00;99.90;;;;;;5075298;28;20157;-73
2023/02/25 05:38:16;;;;;;;13.47;2.00;;;6.00;99.90;;;;;;5074160;28;20249;-73
2023/02/25 05:40:42;;;;;;;14.87;2.67;;;6.00;99.90;;;;;;5075573;28;20148;-72
2023/02/25 05:43:07;;;;;;;9.33;2.00;;;6.00;99.90;;;;;;5075328;28;20762;-72
2023/02/25 05:45:34;;;;;;;12.83;2.20;;;6.10;99.90;;;;;;5074899;28;20157;-73
2023/02/25 05:47:59;;;;;;;9.60;1.73;;;6.20;99.90;;;;;;5075756;28;20156;-72
2023/02/25 05:50:27;;;;;;;12.70;1.80;;;6.30;99.90;;;;;;5074255;28;20179;-72
2023/02/25 05:52:52;;;;;;;14.10;2.20;;;6.20;99.90;;;;;;5073815;28;20196;-72
2023/02/25 05:55:18;;;;;;;7.97;1.60;;;6.00;99.90;;;;;;5073853;28;20166;-72
2023/02/25 05:57:45;;;;;;;10.30;1.73;;;6.00;99.90;;;;;;5074987;28;20654;-72
2023/02/25 06:00:13;;;;;;;9.10;1.67;;;6.20;99.90;;;;;;5073920;28;20175;-74
2023/02/25 06:02:40;;;;;;;7.97;1.57;;;6.20;99.90;;;;;;5074576;28;20168;-72
2023/02/25 06:05:06;;;;;;;9.17;2.13;;;6.30;99.90;;;;;;5074762;28;20156;-72
2023/02/25 06:07:33;;;;;;;8.80;1.40;;;6.20;99.90;;;;;;5074863;28;20160;-72
2023/02/25 06:09:59;;;;;;;10.67;1.50;;;6.20;99.90;;;;;;5073674;28;20579;-73
2023/02/25 06:12:30;;;;;;;6.70;1.40;;;6.00;99.90;;;;;;5074441;28;20200;-72
2023/02/25 06:14:55;;;;;;;6.50;1.47;;;6.00;99.90;;;;;;5073385;28;20269;-71
2023/02/25 06:17:23;;;;;;;7.70;1.33;;;5.90;99.90;;;;;;5074925;28;20632;-72
2023/02/25 06:19:50;;;;;;;9.53;1.50;;;5.80;99.90;;;;;;5074602;28;20515;-72
2023/02/25 06:22:16;;;;;;;11.70;1.83;;;5.90;99.90;;;;;;5074684;28;20169;-71
2023/02/25 06:24:42;;;;;;;6.87;1.40;;;6.10;99.90;;;;;;5072905;28;20184;-72
2023/02/25 06:27:07;;;;;;;10.70;2.50;;;6.20;99.90;;;;;;5074702;28;20173;-72
2023/02/25 06:29:34;;;;;;;6.13;1.50;;;6.20;99.90;;;;;;5074533;28;20203;-73
2023/02/25 06:32:00;;;;;;;10.90;1.60;;;6.30;99.90;;;;;;5073949;28;20254;-72
2023/02/25 06:34:31;;;;;;;10.03;1.73;;;6.30;99.90;;;;;;5074160;28;20603;-73
2023/02/25 06:36:57;;;;;;;9.87;1.77;;;6.20;99.90;;;;;;5074496;28;20239;-72
2023/02/25 06:39:23;;;;;;;10.80;1.70;;;6.10;99.90;;;;;;5074475;28;20165;-72
2023/02/25 06:41:48;;;;;;;10.23;2.17;;;6.10;99.90;;;;;;5074119;28;20211;-72
2023/02/25 06:44:14;;;;;;;10.37;2.03;;;6.10;99.90;;;;;;5074320;28;20236;-72
2023/02/25 06:46:40;;;;;;;11.67;1.93;;;6.10;99.90;;;;;;5074311;28;20187;-73
2023/02/25 06:49:06;;;;;;;11.00;2.63;;;5.90;99.90;;;;;;5074352;28;20248;-73
2023/02/25 06:51:31;;;;;;;7.60;2.10;;;5.90;99.90;;;;;;5073681;28;20256;-74
2023/02/25 06:53:57;;;;;;;9.23;2.27;;;5.90;99.90;;;;;;5073811;28;20235;-73
2023/02/25 06:56:25;;;;;;;11.33;2.43;;;5.70;99.90;;;;;;5072127;28;20623;-73
2023/02/25 06:58:52;;;;;;;4.63;1.53;;;5.80;99.90;;;;;;5074017;28;20173;-74
2023/02/25 07:01:17;;;;;;;10.03;2.07;;;5.80;99.90;;;;;;5072588;28;20340;-74
2023/02/25 07:03:44;;;;;;;11.60;1.80;;;6.00;99.90;;;;;;5073629;28;20669;-76
2023/02/25 07:06:10;;;;;;;10.97;2.60;;;6.10;99.90;;;;;;5074046;28;20161;-77
2023/02/25 07:08:37;;;;;;;10.53;2.00;;;6.20;99.90;;;;;;5072366;28;20165;-77
2023/02/25 07:11:20;;;;;;;7.10;1.70;;;6.20;99.90;;;;;;5073482;28;20250;-78
2023/02/25 07:13:47;;;;;;;9.23;1.67;;;6.10;99.90;;;;;;5052269;28;20215;-78
2023/02/25 07:16:16;;;;;;;19.30;2.37;;;5.90;99.90;;;;;;5052380;28;20164;-77
2023/02/25 07:18:47;;;;;;;11.03;2.13;;;5.90;99.90;;;;;;5054159;28;20564;-77
2023/02/25 07:21:16;;;;;;;10.10;2.37;;;5.80;99.90;;;;;;5052683;28;20216;-77
2023/02/25 07:23:42;;;;;;;15.10;3.03;;;5.60;99.90;;;;;;5072106;28;20177;-78
2023/02/25 07:26:11;;;;;;;11.27;2.57;;;5.80;99.90;;;;;;5072668;28;20159;-77
2023/02/25 07:28:38;;;;;;;7.53;2.63;;;6.10;99.90;;;;;;5072868;28;20531;-77
2023/02/25 07:31:20;;;;;;;8.57;2.37;;;5.90;99.90;;;;;;5072427;28;20180;-75
2023/02/25 07:33:47;;;;;;;11.97;3.53;;;5.90;99.90;;;;;;5073565;28;20177;-75
2023/02/25 07:36:15;;;;;;;8.47;2.60;;;5.90;99.90;;;;;;5073935;28;20165;-75
2023/02/25 07:38:44;;;;;;;11.73;1.93;;;5.80;99.90;;;;;;5072509;28;20259;-75
2023/02/25 07:41:17;;;;;;;10.60;2.10;;;5.80;99.90;;;;;;5072593;28;20650;-76
2023/02/25 07:43:49;;;;;;;13.33;2.17;;;5.90;99.90;;;;;;5072017;28;20212;-74
2023/02/25 07:46:16;;;;;;;15.40;2.30;;;5.90;99.90;;;;;;5072194;28;20514;-76
2023/02/25 07:48:42;;;;;;;14.63;2.13;;;6.10;99.90;;;;;;5072103;28;20165;-75
2023/02/25 07:51:14;;;;;;;9.10;1.70;;;6.30;99.90;;;;;;5071761;28;20234;-75
2023/02/25 07:53:45;;;;;;;14.80;2.57;;;6.30;99.90;;;;;;5072944;28;20205;-75
2023/02/25 07:56:14;;;;;;;14.43;2.20;;;6.30;99.90;;;;;;5073396;28;20536;-74
2023/02/25 07:58:42;;;;;;;11.60;2.37;;;6.30;99.90;;;;;;5072340;28;20663;-76
2023/02/25 08:01:17;;;;;;;6.30;1.73;;;6.30;99.90;;;;;;5071837;28;20191;-75
2023/02/25 08:03:48;;;;;;;11.37;2.03;;;6.10;99.90;;;;;;5072802;28;20672;-75
2023/02/25 08:06:16;;;;;;;8.07;1.70;;;6.20;99.90;;;;;;5071541;28;20182;-74
2023/02/25 08:08:45;;;;;;;8.07;1.80;;;6.20;99.90;;;;;;5071682;28;20171;-76
2023/02/25 08:11:14;;;;;;;8.73;2.30;;;6.20;99.90;;;;;;5071509;28;20175;-78
2023/02/25 08:13:58;;;;;;;12.87;2.17;;;6.10;99.90;;;;;;5072780;28;20283;-78
2023/02/25 08:16:27;;;;;;;8.53;1.70;;;6.10;99.90;;;;;;5071457;28;20221;-77
2023/02/25 08:18:55;;;;;;;9.53;1.70;;;6.20;99.90;;;;;;5071491;28;20246;-77
2023/02/25 08:21:39;;;;;;;12.63;1.87;;;6.20;99.90;;;;;;5072977;28;20671;-78
2023/02/25 08:24:20;;;;;;;8.30;1.80;;;6.20;99.90;;;;;;5072746;28;20160;-76
2023/02/25 08:26:53;;;;;;;6.97;2.03;;;6.20;99.90;;;;;;5071237;28;20193;-77
2023/02/25 08:29:35;;;;;;;14.63;2.23;;;6.30;99.90;;;;;;5072438;28;20158;-78
2023/02/25 08:32:41;;;;;;;11.83;1.90;;;6.60;99.90;;;;;;5072539;28;20161;-77
2023/02/25 08:35:13;;;;;;;9.03;1.97;;;6.80;99.90;;;;;;5072871;28;20175;-78
2023/02/25 08:38:04;;;;;;;9.53;1.77;;;6.60;99.90;;;;;;5072616;28;20194;-77
2023/02/25 08:40:44;;;;;;;7.03;1.63;;;6.60;99.90;;;;;;5071439;28;20250;-77
2023/02/25 08:43:10;;;;;;;7.80;1.07;;;6.50;99.90;;;;;;5071352;28;20165;-77
2023/02/25 08:45:40;;;;;;;7.03;1.60;;;6.60;99.90;;;;;;5072637;28;20158;-77
2023/02/25 08:48:06;;;;;;;9.13;1.40;;;6.60;99.90;;;;;;5071171;28;20175;-77
2023/02/25 08:50:34;;;;;;;6.37;1.60;;;6.50;99.90;;;;;;5071460;28;20261;-77
2023/02/25 08:53:03;;;;;;;6.03;1.17;;;6.60;99.90;;;;;;5072139;28;21798;-78
2023/02/25 08:55:34;;;;;;;9.63;2.30;;;6.80;99.90;;;;;;5070998;28;20161;-78
2023/02/25 08:58:01;;;;;;;8.53;1.30;;;7.00;99.90;;;;;;5071129;28;20269;-78
2023/02/25 09:00:28;;;;;;;9.57;1.43;;;7.00;99.90;;;;;;5071420;28;20235;-78
2023/02/25 09:02:53;;;;;;;6.83;1.53;;;6.90;99.90;;;;;;5067569;28;20176;-77
2023/02/25 09:05:19;;;;;;;8.70;1.87;;;6.70;99.90;;;;;;5081354;28;20233;-75
2023/02/25 09:07:46;;;;;;;5.87;1.40;;;6.90;99.90;;;;;;5074432;28;20168;-76
2023/02/25 09:10:13;;;;;;;9.73;2.47;;;6.90;99.90;;;;;;5092147;28;20161;-78
2023/02/25 09:12:39;;;;;;;7.90;1.70;;;7.00;99.90;;;;;;5093207;28;20310;-78
2023/02/25 09:15:12;;;;;;;7.87;1.50;;;7.10;99.90;;;;;;5093838;28;20151;-78
2023/02/25 09:17:40;;;;;;;8.00;1.27;;;7.30;99.90;;;;;;5093040;28;20684;-77
2023/02/25 09:20:07;;;;;;;6.97;1.37;;;7.60;99.90;;;;;;5076821;28;20512;-78
2023/02/25 09:22:39;;;;;;;9.33;1.70;;;7.80;99.90;;;;;;5076976;28;20618;-78
2023/02/25 09:25:05;;;;;;;7.57;1.40;;;7.80;99.90;;;;;;5077278;28;20510;-78
2023/02/25 09:27:33;;;;;;;11.33;1.70;;;7.60;99.90;;;;;;5077159;28;20258;-78
2023/02/25 09:30:02;;;;;;;6.43;1.20;;;7.20;99.90;;;;;;5075824;28;20176;-78
2023/02/25 09:32:30;;;;;;;5.53;1.40;;;7.20;99.90;;;;;;5074872;28;20181;-77
2023/02/25 09:35:01;;;;;;;12.43;2.03;;;7.10;99.90;;;;;;5074928;28;20161;-78
2023/02/25 09:37:44;;;;;;;10.20;1.77;;;7.10;99.90;;;;;;5076023;28;20633;-78
2023/02/25 09:40:21;;;;;;;14.90;2.53;;;7.00;99.90;;;;;;5075547;28;20161;-78
2023/02/25 09:43:17;;;;;;;7.30;1.43;;;7.00;99.90;;;;;;5074231;28;20196;-76
2023/02/25 09:45:49;;;;;;;10.13;1.53;;;7.00;99.90;;;;;;5074564;28;20208;-77
2023/02/25 09:48:39;;;;;;;8.73;1.40;;;6.90;99.90;;;;;;5093548;28;20177;-77
2023/02/25 09:51:21;;;;;;;7.20;1.83;;;7.00;99.90;;;;;;5095799;28;20212;-78
2023/02/25 09:54:01;;;;;;;7.43;1.67;;;7.10;99.90;;;;;;5095503;28;20676;-77
2023/02/25 09:56:30;;;;;;;10.20;1.60;;;7.20;99.90;;;;;;5081880;28;20269;-77
2023/02/25 09:58:58;;;;;;;11.43;1.97;;;7.30;99.90;;;;;;5075294;28;20154;-78
2023/02/25 10:02:21;;;;;;;7.43;1.63;;;7.40;99.90;;;;;;5066759;28;20207;-79
2023/02/25 10:05:01;;;;;;;8.43;1.60;;;7.40;99.90;;;;;;5052363;28;20169;-77
2023/02/25 10:07:34;;;;;;;5.27;1.80;;;7.30;99.90;;;;;;5062095;28;20168;-77
2023/02/25 10:10:18;;;;;;;9.97;2.00;;;7.20;99.90;;;;;;5074047;28;20749;-78
2023/02/25 10:13:39;;;;;;;4.87;1.40;;;7.20;99.90;;;;;;5072576;28;20202;-77
2023/02/25 10:16:27;;;;;;;9.57;1.63;;;7.20;99.90;;;;;;5073624;28;20184;-78
2023/02/25 10:19:13;;;;;;;9.97;1.67;;;7.40;99.90;;;;;;5072812;28;20176;-78
2023/02/25 10:22:16;;;;;;;8.43;1.67;;;7.60;99.90;;;;;;5062948;28;20180;-78
2023/02/25 10:24:49;;;;;;;8.23;1.40;;;7.90;99.90;;;;;;5074287;28;20186;-78
2023/02/25 10:27:36;;;;;;;11.30;2.20;;;8.00;99.90;;;;;;5072888;28;20518;-77
2023/02/25 10:30:26;;;;;;;6.47;1.70;;;8.30;99.90;;;;;;5074459;28;20147;-78
2023/02/25 10:32:54;;;;;;;12.73;2.00;;;8.40;99.90;;;;;;5072848;28;20665;-77
2023/02/25 10:35:27;;;;;;;7.93;2.17;;;8.40;99.90;;;;;;5068558;28;20217;-78
2023/02/25 10:37:54;;;;;;;9.63;1.60;;;8.40;99.90;;;;;;5065627;28;20175;-77
2023/02/25 10:40:23;;;;;;;7.50;1.83;;;8.40;99.90;;;;;;5072536;28;20163;-79
2023/02/25 10:42:53;;;;;;;9.40;2.00;;;8.50;99.90;;;;;;5074164;28;20249;-78
2023/02/25 10:45:31;;;;;;;11.70;2.17;;;8.50;99.90;;;;;;5072820;28;20174;-79
2023/02/25 10:48:17;;;;;;;16.63;2.80;;;8.20;99.90;;;;;;5074139;28;20171;-76
2023/02/25 10:51:11;;;;;;;11.90;2.60;;;8.00;99.90;;;;;;5073712;28;20172;-78
2023/02/25 10:53:38;;;;;;;12.07;1.70;;;8.00;99.90;;;;;;5074270;28;20198;-78
2023/02/25 10:56:06;;;;;;;3.67;1.10;;;8.00;99.90;;;;;;5072578;28;20206;-77
2023/02/25 10:58:45;;;;;;;5.10;1.07;;;7.50;99.90;;;;;;5072502;28;20180;-78
2023/02/25 11:01:18;;;;;;;5.70;1.30;;;7.20;99.90;;;;;;5072553;28;20197;-79
2023/02/25 11:03:59;;;;;;;5.33;0.97;;;7.00;99.90;;;;;;5075810;28;21232;-77
2023/02/25 11:06:43;;;;;;;6.10;1.63;;;6.70;99.90;;;;;;5071294;28;20205;-78
2023/02/25 11:09:17;;;;;;;7.00;1.43;;;6.60;99.90;;;;;;5094894;28;20170;-78
2023/02/25 11:12:14;;;;;;;4.10;1.17;;;6.60;99.90;;;;;;5076870;28;20205;-78
2023/02/25 11:14:40;;;;;;;5.53;1.00;;;6.80;99.90;;;;;;5069751;28;20191;-77
2023/02/25 11:17:11;;;;;;;8.37;1.77;;;6.90;99.90;;;;;;5086028;28;20172;-78
2023/02/25 11:19:41;;;;;;;5.33;1.37;;;7.00;99.90;;;;;;5083490;28;20597;-79
2023/02/25 11:22:22;;;;;;;5.57;1.00;;;7.40;99.90;;;;;;5079773;28;20171;-77
2023/02/25 11:24:58;;;;;;;6.17;1.50;;;7.90;99.90;;;;;;5089576;28;20557;-77
2023/02/25 11:27:40;;;;;;;6.70;1.33;;;8.40;99.90;;;;;;5078491;28;20169;-77
2023/02/25 11:30:15;;;;;;;4.93;1.37;;;8.90;99.90;;;;;;5092243;28;20167;-78
2023/02/25 11:32:53;;;;;;;9.03;1.20;;;9.40;99.90;;;;;;5075664;28;20211;-78
2023/02/25 11:35:36;;;;;;;9.60;1.80;;;9.70;99.90;;;;;;5078668;28;20173;-77
2023/02/25 11:38:28;;;;;;;8.90;1.73;;;10.00;99.90;;;;;;5081872;28;20217;-77
2023/02/25 11:40:57;;;;;;;10.30;2.23;;;10.70;99.90;;;;;;5072033;28;20248;-78
2023/02/25 11:43:48;;;;;;;9.53;1.97;;;10.80;99.90;;;;;;5052014;28;20181;-79
2023/02/25 11:46:26;;;;;;;8.20;1.80;;;10.70;99.90;;;;;;5053497;28;20184;-77
2023/02/25 11:49:19;;;;;;;12.47;2.57;;;10.80;99.90;;;;;;5053500;28;20162;-77
2023/02/25 11:52:04;;;;;;;9.30;1.83;;;11.10;99.90;;;;;;5051845;28;20185;-79
2023/02/25 11:54:56;;;;;;;9.03;2.90;;;10.40;99.90;;;;;;5052067;28;20242;-78
2023/02/25 11:58:07;;;;;;;14.10;2.30;;;9.90;99.90;;;;;;5064364;28;20576;-78
2023/02/25 12:04:24;;;;;;;12.07;2.27;;;9.30;99.90;;;;;;5093447;28;20178;-77
2023/02/25 12:07:37;;;;;;;5.93;1.30;;;8.70;99.90;;;;;;5074989;28;20167;-77
2023/02/25 12:10:22;;;;;;;10.47;1.50;;;8.00;99.90;;;;;;5072041;28;20268;-77
2023/02/25 12:13:06;;;;;;;5.90;0.97;;;7.30;99.90;;;;;;5071879;28;20600;-77
2023/02/25 12:16:09;;;;;;;13.03;1.60;;;6.90;99.90;;;;;;5073588;28;20222;-79
2023/02/25 12:19:16;;;;;;;3.77;1.30;;;6.80;99.90;;;;;;5064080;28;20180;-79
2023/02/25 12:22:13;;;;;;;8.63;2.00;;;6.80;99.90;;;;;;5063804;28;20187;-78
2023/02/25 12:25:16;;;;;;;4.13;0.80;;;7.00;99.90;;;;;;5072103;28;20263;-77
2023/02/25 12:31:03;;;;;;;3.73;1.10;;;7.10;99.90;;;;;;5074208;28;20605;-78
2023/02/25 12:34:01;;;;;;;9.13;1.93;;;7.40;99.90;;;;;;5073188;28;20233;-77
2023/02/25 12:37:04;;;;;;;3.97;1.03;;;7.70;99.90;;;;;;5071573;28;20180;-78
2023/02/25 12:40:11;;;;;;;6.30;1.27;;;8.00;99.90;;;;;;5072095;28;20159;-77
2023/02/25 12:42:57;;;;;;;8.07;1.57;;;8.30;99.90;;;;;;5073099;28;20160;-78
2023/02/25 12:45:55;;;;;;;6.00;1.03;;;8.60;99.90;;;;;;5071591;28;20167;-77
2023/02/25 12:48:48;;;;;;;5.57;1.43;;;9.40;99.90;;;;;;5072912;28;20187;-78
2023/02/25 12:51:54;;;;;;;6.13;1.20;;;10.60;99.90;;;;;;5072832;28;20223;-79
2023/02/25 12:54:57;;;;;;;7.40;1.70;;;11.90;99.90;;;;;;5072999;28;20192;-78
2023/02/25 12:58:05;;;;;;;6.17;1.30;;;12.10;99.90;;;;;;5075587;28;20219;-78
2023/02/25 13:01:11;;;;;;;5.17;1.33;;;12.00;99.90;;;;;;5075561;28;20638;-78
2023/02/25 13:04:00;;;;;;;7.87;1.20;;;12.60;99.90;;;;;;5076856;28;20631;-78
2023/02/25 13:07:04;;;;;;;7.17;1.50;;;12.90;99.90;;;;;;5073321;28;20190;-78
2023/02/25 13:10:07;;;;;;;6.20;1.30;;;13.70;99.40;;;;;;5076390;28;20224;-78
2023/02/25 13:13:10;;;;;;;6.30;1.30;;;13.70;96.70;;;;;;5075193;28;20194;-77
2023/02/25 13:16:02;;;;;;;8.80;1.70;;;14.30;97.10;;;;;;5078481;28;20360;-77
2023/02/25 13:19:18;;;;;;;5.60;1.03;;;14.50;95.70;;;;;;5096415;28;20233;-77
2023/02/25 13:22:11;;;;;;;3.53;0.80;;;13.40;97.00;;;;;;5081617;28;20197;-77
2023/02/25 13:25:14;;;;;;;6.40;1.10;;;12.10;99.30;;;;;;5061444;28;20170;-77
2023/02/25 13:28:17;;;;;;;5.23;0.70;;;11.10;99.90;;;;;;5065722;28;20267;-78
2023/02/25 13:30:44;;;;;;;2.30;0.63;;;10.40;99.90;;;;;;5054972;28;20172;-78
2023/02/25 13:33:59;;;;;;;3.10;1.00;;;10.20;99.90;;;;;;5057428;28;20275;-79
2023/02/25 13:36:36;;;;;;;7.07;0.87;;;10.20;99.90;;;;;;5085083;28;20620;-78
2023/02/25 13:43:05;;;;;;;4.07;0.70;;;10.30;99.90;;;;;;5075886;28;20251;-77